Time;durP1;ratioP1;P1;durP2;ratioP2;P2;SDS_P1;SDS_P2;PMS_P1;PMS_P2;Temp;Humidity;BMP_temperature;BMP_pressure;BME280_temperature;BME280_humidity;BME280_pressure;Samples;Min_cycle;Max_cycle;Signal;HPM_P1;HPM_P2
2022/09/12 00:01:11;;;;;;;7.13;4.75;;;14.50;99.90;;;;;;5065853;28;20093;-73
2022/09/12 00:03:38;;;;;;;8.77;5.18;;;14.40;99.90;;;;;;5052939;28;20103;-73
2022/09/12 00:06:15;;;;;;;8.73;5.40;;;14.40;99.90;;;;;;5070471;28;20535;-73
2022/09/12 00:08:40;;;;;;;7.35;5.40;;;14.40;99.90;;;;;;5051830;28;20045;-73
2022/09/12 00:11:08;;;;;;;8.32;5.30;;;14.30;99.90;;;;;;5060227;28;20051;-73
2022/09/12 00:13:35;;;;;;;7.65;4.95;;;14.30;99.90;;;;;;5066400;28;20102;-73
2022/09/12 00:16:01;;;;;;;7.40;5.30;;;14.30;99.90;;;;;;5058588;28;20045;-73
2022/09/12 00:18:27;;;;;;;9.95;5.68;;;14.20;99.90;;;;;;5046818;28;20051;-73
2022/09/12 00:20:52;;;;;;;7.82;6.10;;;14.20;99.90;;;;;;5063406;28;20115;-73
2022/09/12 00:23:18;;;;;;;9.43;5.80;;;14.20;99.90;;;;;;5045197;28;20041;-73
2022/09/12 00:25:46;;;;;;;9.35;6.03;;;14.20;99.90;;;;;;5061192;28;20122;-73
2022/09/12 00:28:14;;;;;;;10.85;6.03;;;14.20;99.90;;;;;;5060318;28;20067;-73
2022/09/12 00:30:44;;;;;;;8.25;5.03;;;14.20;99.90;;;;;;5063103;28;20493;-72
2022/09/12 00:33:11;;;;;;;6.90;4.88;;;14.10;99.90;;;;;;5066266;28;20052;-72
2022/09/12 00:35:54;;;;;;;8.40;5.13;;;14.10;99.90;;;;;;5060505;28;20055;-73
2022/09/12 00:38:21;;;;;;;8.20;5.10;;;14.10;99.90;;;;;;5067658;28;20148;-72
2022/09/12 00:40:47;;;;;;;7.65;5.50;;;14.10;99.90;;;;;;5051779;28;21731;-73
2022/09/12 00:43:29;;;;;;;7.32;4.80;;;14.00;99.90;;;;;;5061769;28;20705;-73
2022/09/12 00:46:03;;;;;;;7.72;4.80;;;14.00;99.90;;;;;;5064993;28;20095;-72
2022/09/12 00:48:37;;;;;;;6.18;4.43;;;14.00;99.90;;;;;;5060519;28;20041;-72
2022/09/12 00:51:03;;;;;;;6.88;4.57;;;14.00;99.90;;;;;;5064047;28;20602;-73
2022/09/12 00:53:29;;;;;;;6.63;4.72;;;14.00;99.90;;;;;;5059392;28;20131;-73
2022/09/12 00:55:56;;;;;;;7.03;4.40;;;13.90;99.90;;;;;;5058471;28;20505;-73
2022/09/12 00:58:46;;;;;;;7.90;4.15;;;13.90;99.90;;;;;;5055003;28;20497;-73
2022/09/12 01:01:11;;;;;;;7.03;4.32;;;13.90;99.90;;;;;;5059820;28;20047;-72
2022/09/12 01:03:37;;;;;;;7.28;4.13;;;13.90;99.90;;;;;;5063825;28;20032;-72
2022/09/12 01:06:35;;;;;;;7.55;3.85;;;13.80;99.90;;;;;;5038481;28;20119;-72
2022/09/12 01:09:03;;;;;;;6.35;3.92;;;13.80;99.90;;;;;;5058918;28;20049;-72
2022/09/12 01:11:38;;;;;;;6.30;3.80;;;13.80;99.90;;;;;;5061003;28;20131;-72
2022/09/12 01:14:04;;;;;;;5.88;4.18;;;13.80;99.90;;;;;;5061819;28;20178;-72
2022/09/12 01:16:29;;;;;;;6.07;3.90;;;13.80;99.90;;;;;;5062006;28;20552;-72
2022/09/12 01:19:35;;;;;;;5.93;3.63;;;13.70;99.90;;;;;;5061627;28;20068;-72
2022/09/12 01:22:22;;;;;;;6.50;4.20;;;13.70;99.90;;;;;;5077114;28;20071;-73
2022/09/12 01:25:11;;;;;;;6.03;3.90;;;13.70;99.90;;;;;;5062028;28;20533;-72
2022/09/12 01:28:15;;;;;;;6.03;4.28;;;13.60;99.90;;;;;;5055541;28;20400;-73
2022/09/12 01:30:51;;;;;;;6.30;4.20;;;13.60;99.90;;;;;;5059709;28;20126;-73
2022/09/12 01:33:41;;;;;;;7.88;4.20;;;13.60;99.90;;;;;;5046961;28;20460;-73
2022/09/12 01:36:07;;;;;;;6.78;4.35;;;13.60;99.90;;;;;;5061243;28;20683;-73
2022/09/12 01:38:39;;;;;;;6.22;4.32;;;13.50;99.90;;;;;;5065236;28;20040;-73
2022/09/12 01:41:17;;;;;;;7.43;4.07;;;13.50;99.90;;;;;;5059062;28;20394;-72
2022/09/12 01:44:06;;;;;;;6.70;4.30;;;13.50;99.90;;;;;;5066433;28;20119;-73
2022/09/12 01:46:57;;;;;;;7.53;4.60;;;13.40;99.90;;;;;;5063377;28;20410;-72
2022/09/12 01:49:35;;;;;;;8.57;4.43;;;13.40;99.90;;;;;;5054914;28;20405;-73
2022/09/12 01:52:33;;;;;;;6.38;4.22;;;13.40;99.90;;;;;;5050964;28;20568;-72
2022/09/12 01:55:17;;;;;;;6.78;4.30;;;13.50;99.90;;;;;;5043536;28;20532;-73
2022/09/12 01:57:50;;;;;;;7.45;5.13;;;13.40;99.90;;;;;;5057252;28;20045;-72
2022/09/12 02:00:16;;;;;;;10.88;6.88;;;13.30;99.90;;;;;;5072353;28;20177;-72
2022/09/12 02:03:09;;;;;;;10.27;6.85;;;13.30;99.90;;;;;;5057656;28;20052;-72
2022/09/12 02:05:53;;;;;;;13.75;8.40;;;13.40;99.90;;;;;;5055461;28;20599;-73
2022/09/12 02:08:30;;;;;;;14.82;11.15;;;13.40;99.90;;;;;;5063717;28;20044;-73
2022/09/12 02:11:07;;;;;;;14.80;11.25;;;13.40;99.90;;;;;;5064308;28;20044;-73
2022/09/12 02:13:40;;;;;;;13.48;9.77;;;13.40;99.90;;;;;;5061376;28;20048;-73
2022/09/12 02:16:10;;;;;;;16.15;10.50;;;13.40;99.90;;;;;;5065116;28;20057;-73
2022/09/12 02:18:45;;;;;;;13.25;11.07;;;13.50;99.90;;;;;;5066240;28;20048;-73
2022/09/12 02:21:12;;;;;;;14.15;10.68;;;13.40;99.90;;;;;;5060199;28;21385;-73
2022/09/12 02:23:44;;;;;;;16.00;12.07;;;13.50;99.90;;;;;;5053891;28;20090;-72
2022/09/12 02:26:18;;;;;;;12.27;10.43;;;13.50;99.90;;;;;;5058486;28;20083;-73
2022/09/12 02:28:44;;;;;;;14.20;9.88;;;13.50;99.90;;;;;;5070417;28;20101;-73
2022/09/12 02:31:21;;;;;;;14.68;9.98;;;13.50;99.90;;;;;;5056393;28;20087;-72
2022/09/12 02:34:04;;;;;;;11.23;8.90;;;13.50;99.90;;;;;;5057855;28;20675;-73
2022/09/12 02:36:49;;;;;;;14.45;8.77;;;13.40;99.90;;;;;;5059213;28;20041;-72
2022/09/12 02:39:18;;;;;;;11.13;8.65;;;13.40;99.90;;;;;;5070134;28;20044;-72
2022/09/12 02:41:46;;;;;;;8.02;6.60;;;13.40;99.90;;;;;;5070284;28;21245;-72
2022/09/12 02:44:12;;;;;;;7.85;6.30;;;13.40;99.90;;;;;;5067875;28;20055;-72
2022/09/12 02:46:51;;;;;;;8.35;5.47;;;13.40;99.90;;;;;;5071920;28;20397;-73
2022/09/12 02:49:17;;;;;;;7.90;5.57;;;13.30;99.90;;;;;;5057986;28;20498;-72
2022/09/12 02:51:44;;;;;;;8.23;5.00;;;13.40;99.90;;;;;;5037984;28;20098;-72
2022/09/12 02:54:10;;;;;;;7.20;5.22;;;13.20;99.90;;;;;;5073280;28;20049;-72
2022/09/12 02:56:41;;;;;;;11.50;7.75;;;13.20;99.90;;;;;;5071555;28;20048;-72
2022/09/12 02:59:10;;;;;;;11.52;7.00;;;13.20;99.90;;;;;;5060068;28;20052;-72
2022/09/12 03:01:58;;;;;;;12.10;8.85;;;13.20;99.90;;;;;;5062409;28;20052;-73
2022/09/12 03:04:47;;;;;;;12.52;9.50;;;13.10;99.90;;;;;;5062671;28;20033;-72
2022/09/12 03:07:36;;;;;;;14.60;10.88;;;13.10;99.90;;;;;;5057220;28;20832;-72
2022/09/12 03:10:10;;;;;;;14.40;11.98;;;13.10;99.90;;;;;;5038080;28;20045;-72
2022/09/12 03:13:11;;;;;;;17.13;11.98;;;13.10;99.90;;;;;;5065761;28;20105;-72
2022/09/12 03:15:39;;;;;;;16.75;14.13;;;13.10;99.90;;;;;;5055230;28;20067;-72
2022/09/12 03:18:25;;;;;;;17.20;12.85;;;13.20;99.90;;;;;;5058905;28;20052;-72
2022/09/12 03:21:07;;;;;;;18.27;14.57;;;13.20;99.90;;;;;;5053930;28;20046;-71
2022/09/12 03:24:03;;;;;;;15.30;13.20;;;13.20;99.90;;;;;;5064908;28;20405;-72
2022/09/12 03:26:38;;;;;;;18.50;15.07;;;13.20;99.90;;;;;;5064332;28;20101;-72
2022/09/12 03:29:06;;;;;;;21.02;15.40;;;13.20;99.90;;;;;;5065003;28;20473;-71
2022/09/12 03:31:32;;;;;;;19.48;15.40;;;13.20;99.90;;;;;;5058788;28;20801;-72
2022/09/12 03:33:59;;;;;;;24.23;18.80;;;13.30;99.90;;;;;;5054049;28;20036;-72
2022/09/12 03:36:27;;;;;;;23.98;18.73;;;13.20;99.90;;;;;;5075374;28;20052;-72
2022/09/12 03:38:53;;;;;;;22.35;17.15;;;13.30;99.90;;;;;;5052226;28;20036;-72
2022/09/12 03:41:20;;;;;;;23.15;17.98;;;13.30;99.90;;;;;;5050790;28;20417;-72
2022/09/12 03:43:46;;;;;;;25.15;18.75;;;13.20;99.90;;;;;;5068869;28;20067;-73
2022/09/12 03:46:12;;;;;;;24.00;18.05;;;13.20;99.90;;;;;;5055689;28;20470;-72
2022/09/12 03:48:39;;;;;;;24.17;16.58;;;13.30;99.90;;;;;;5057883;28;20051;-72
2022/09/12 03:51:08;;;;;;;19.70;16.38;;;13.30;99.90;;;;;;5050527;28;20164;-73
2022/09/12 03:53:34;;;;;;;21.98;17.40;;;13.20;99.90;;;;;;5052960;28;20048;-72
2022/09/12 03:56:04;;;;;;;21.48;17.30;;;13.30;99.90;;;;;;5053691;28;20091;-72
2022/09/12 03:58:30;;;;;;;30.05;21.63;;;13.30;99.90;;;;;;5076729;28;20451;-72
2022/09/12 04:00:56;;;;;;;24.83;19.35;;;13.30;99.90;;;;;;5060581;28;20036;-71
2022/09/12 04:03:21;;;;;;;27.70;21.02;;;13.20;99.90;;;;;;5063022;28;20067;-72
2022/09/12 04:05:47;;;;;;;28.42;21.33;;;13.20;99.90;;;;;;5044029;28;20033;-72
2022/09/12 04:08:13;;;;;;;27.73;20.80;;;13.20;99.90;;;;;;5060241;28;20055;-72
2022/09/12 04:10:39;;;;;;;24.25;19.45;;;13.20;99.90;;;;;;5064983;28;20041;-72
2022/09/12 04:13:05;;;;;;;25.80;20.40;;;13.30;99.90;;;;;;5068683;28;20049;-72
2022/09/12 04:15:31;;;;;;;24.65;18.80;;;13.20;99.90;;;;;;5059686;28;20425;-72
2022/09/12 04:17:57;;;;;;;27.58;21.75;;;13.20;99.90;;;;;;5062150;28;20053;-72
2022/09/12 04:20:22;;;;;;;26.38;20.30;;;13.20;99.90;;;;;;5065606;28;20047;-73
2022/09/12 04:22:48;;;;;;;26.85;21.83;;;13.20;99.90;;;;;;5053050;28;20051;-73
2022/09/12 04:25:14;;;;;;;26.95;20.92;;;13.20;99.90;;;;;;5056165;28;20393;-72
2022/09/12 04:27:40;;;;;;;29.02;22.23;;;13.30;99.90;;;;;;5063637;28;20119;-72
2022/09/12 04:30:07;;;;;;;30.95;24.20;;;13.30;99.90;;;;;;5064864;28;20048;-72
2022/09/12 04:32:33;;;;;;;29.17;22.63;;;13.30;99.90;;;;;;5045383;28;20047;-71
2022/09/12 04:34:59;;;;;;;31.30;23.67;;;13.30;99.90;;;;;;5063606;28;20041;-72
2022/09/12 04:37:25;;;;;;;32.28;23.25;;;13.30;99.90;;;;;;5065161;28;20486;-72
2022/09/12 04:39:56;;;;;;;33.05;23.75;;;13.30;99.90;;;;;;5062157;28;20040;-72
2022/09/12 04:42:22;;;;;;;31.45;23.08;;;13.30;99.90;;;;;;5055573;28;20110;-72
2022/09/12 04:44:48;;;;;;;32.00;23.63;;;13.40;99.90;;;;;;5052889;28;20032;-72
2022/09/12 04:47:14;;;;;;;34.85;23.55;;;13.40;99.90;;;;;;5063942;28;20833;-72
2022/09/12 04:49:39;;;;;;;34.35;24.85;;;13.40;99.90;;;;;;5052584;28;20044;-72
2022/09/12 04:52:06;;;;;;;35.50;26.05;;;13.40;99.90;;;;;;5051032;28;20059;-72
2022/09/12 04:54:33;;;;;;;33.00;24.17;;;13.50;99.90;;;;;;5053361;28;20078;-72
2022/09/12 04:56:58;;;;;;;31.15;23.77;;;13.50;99.90;;;;;;5050598;28;20178;-72
2022/09/12 04:59:25;;;;;;;32.92;24.27;;;13.50;99.90;;;;;;5057290;28;20123;-72
2022/09/12 05:01:51;;;;;;;35.83;25.70;;;13.50;99.90;;;;;;5062761;28;20036;-72
2022/09/12 05:04:17;;;;;;;38.78;27.33;;;13.50;99.90;;;;;;5059741;28;20702;-71
2022/09/12 05:06:43;;;;;;;37.83;25.95;;;13.60;99.90;;;;;;5057717;28;20040;-72
2022/09/12 05:09:11;;;;;;;35.03;24.95;;;13.60;99.90;;;;;;5054120;28;20090;-72
2022/09/12 05:11:39;;;;;;;38.55;24.45;;;13.60;99.90;;;;;;5049393;28;20711;-72
2022/09/12 05:14:05;;;;;;;37.28;25.80;;;13.60;99.90;;;;;;5046637;28;20500;-72
2022/09/12 05:16:31;;;;;;;37.83;26.30;;;13.60;99.90;;;;;;5029346;28;20458;-72
2022/09/12 05:18:58;;;;;;;35.28;25.48;;;13.70;99.90;;;;;;5030559;28;20053;-73
2022/09/12 05:21:25;;;;;;;34.03;24.83;;;13.70;99.90;;;;;;5046886;28;20041;-73
2022/09/12 05:23:55;;;;;;;34.55;24.85;;;13.70;99.90;;;;;;5050772;28;20071;-73
2022/09/12 05:26:21;;;;;;;37.97;24.98;;;13.70;99.90;;;;;;5064109;28;20425;-73
2022/09/12 05:28:49;;;;;;;31.85;23.27;;;13.70;99.90;;;;;;5048458;28;20106;-73
2022/09/12 05:31:25;;;;;;;33.97;24.67;;;13.60;99.90;;;;;;5054008;28;20056;-73
2022/09/12 05:33:53;;;;;;;32.45;24.25;;;13.80;99.90;;;;;;5056873;28;20037;-73
2022/09/12 05:36:24;;;;;;;32.70;23.15;;;13.80;99.90;;;;;;5058210;28;20401;-73
2022/09/12 05:38:51;;;;;;;34.17;24.63;;;13.80;99.90;;;;;;5051497;28;20464;-73
2022/09/12 05:41:23;;;;;;;33.13;24.67;;;13.90;99.90;;;;;;5051790;28;20040;-73
2022/09/12 05:43:53;;;;;;;35.90;26.25;;;13.80;99.90;;;;;;5049057;28;20432;-73
2022/09/12 05:46:22;;;;;;;38.13;26.97;;;13.90;99.90;;;;;;5046310;28;20114;-73
2022/09/12 05:48:48;;;;;;;37.75;25.38;;;13.90;99.90;;;;;;5055377;28;20037;-73
2022/09/12 05:51:18;;;;;;;36.22;25.55;;;13.90;99.90;;;;;;5057845;28;20854;-73
2022/09/12 05:53:45;;;;;;;35.25;25.00;;;13.90;99.90;;;;;;5053962;28;20469;-73
2022/09/12 05:56:17;;;;;;;35.22;25.75;;;13.90;99.90;;;;;;5058226;28;20151;-73
2022/09/12 05:58:46;;;;;;;34.28;25.40;;;13.90;99.90;;;;;;5059432;28;20040;-73
2022/09/12 06:01:17;;;;;;;39.83;27.08;;;14.00;99.90;;;;;;5076029;28;20111;-73
2022/09/12 06:03:45;;;;;;;33.78;25.52;;;14.00;99.90;;;;;;5057065;28;20037;-73
2022/09/12 06:06:12;;;;;;;35.33;26.23;;;14.00;99.90;;;;;;5076683;28;20488;-73
2022/09/12 06:08:42;;;;;;;37.33;27.48;;;14.00;99.90;;;;;;5076039;28;20143;-73
2022/09/12 06:11:10;;;;;;;34.45;25.30;;;14.00;99.90;;;;;;5047517;28;20049;-73
2022/09/12 06:13:38;;;;;;;35.53;25.60;;;14.10;99.90;;;;;;5067535;28;20037;-73
2022/09/12 06:16:15;;;;;;;39.55;28.48;;;14.10;99.90;;;;;;5048772;28;20051;-73
2022/09/12 06:18:45;;;;;;;42.30;28.42;;;14.10;99.90;;;;;;5065070;28;20128;-73
2022/09/12 06:21:12;;;;;;;37.92;28.15;;;14.20;99.90;;;;;;5069309;28;20471;-73
2022/09/12 06:23:39;;;;;;;39.90;29.50;;;14.00;99.90;;;;;;5055784;28;20544;-73
2022/09/12 06:26:06;;;;;;;38.80;27.83;;;14.20;99.90;;;;;;5057408;28;20090;-73
2022/09/12 06:28:34;;;;;;;40.50;28.05;;;14.20;99.90;;;;;;5060370;28;20122;-73
2022/09/12 06:31:06;;;;;;;42.60;28.00;;;14.30;99.90;;;;;;5064715;28;20048;-73
2022/09/12 06:33:38;;;;;;;39.60;29.02;;;14.30;99.90;;;;;;5064368;28;20045;-73
2022/09/12 06:36:05;;;;;;;;;;;14.30;99.90;;;;;;5062580;28;20043;-73
2022/09/12 06:38:31;;;;;;;43.75;27.55;;;14.30;99.90;;;;;;5061660;28;19920;-73
2022/09/12 06:40:57;;;;;;;47.72;28.80;;;14.40;99.90;;;;;;5064644;28;20068;-73
2022/09/12 06:43:23;;;;;;;45.92;31.05;;;14.30;99.90;;;;;;5064574;28;20121;-73
2022/09/12 06:45:49;;;;;;;46.65;30.58;;;14.40;99.90;;;;;;5062373;28;20541;-72
2022/09/12 06:48:15;;;;;;;45.05;29.17;;;14.40;99.90;;;;;;5064433;28;20059;-73
2022/09/12 06:50:41;;;;;;;48.05;31.15;;;14.40;99.90;;;;;;5065070;28;20120;-73
2022/09/12 06:53:07;;;;;;;50.20;32.63;;;14.40;99.90;;;;;;5063537;28;20055;-73
2022/09/12 06:55:33;;;;;;;55.03;33.38;;;14.40;99.90;;;;;;5062027;28;20047;-72
2022/09/12 06:57:59;;;;;;;49.78;33.10;;;14.50;99.90;;;;;;5062416;28;20041;-73
2022/09/12 07:00:28;;;;;;;56.78;34.40;;;14.50;99.90;;;;;;5063027;28;20421;-73
2022/09/12 07:02:55;;;;;;;53.45;32.88;;;14.50;99.90;;;;;;5048050;28;20051;-73
2022/09/12 07:05:21;;;;;;;50.40;33.83;;;14.50;99.90;;;;;;5067680;28;20272;-73
2022/09/12 07:07:47;;;;;;;53.45;34.88;;;14.50;99.90;;;;;;5050905;28;20464;-74
2022/09/12 07:10:13;;;;;;;56.33;34.00;;;14.60;99.90;;;;;;5064371;28;20044;-73
2022/09/12 07:12:39;;;;;;;58.08;35.50;;;14.60;99.90;;;;;;5056775;28;20400;-73
2022/09/12 07:15:05;;;;;;;60.83;37.22;;;14.70;99.90;;;;;;5062903;28;20048;-73
2022/09/12 07:17:30;;;;;;;54.58;34.42;;;14.70;99.90;;;;;;5065585;28;20055;-73
2022/09/12 07:19:56;;;;;;;58.22;36.58;;;14.70;99.90;;;;;;5057271;28;20040;-73
2022/09/12 07:22:22;;;;;;;61.83;36.65;;;14.80;99.90;;;;;;5063247;28;20412;-73
2022/09/12 07:24:48;;;;;;;56.47;35.72;;;14.80;99.90;;;;;;5060593;28;20820;-73
2022/09/12 07:27:13;;;;;;;60.00;37.67;;;14.90;99.90;;;;;;5061529;28;20033;-73
2022/09/12 07:29:39;;;;;;;56.15;36.22;;;14.90;99.90;;;;;;5065546;28;20043;-73
2022/09/12 07:32:05;;;;;;;58.70;35.92;;;14.90;99.90;;;;;;5048365;28;20086;-73
2022/09/12 07:34:31;;;;;;;55.53;35.17;;;15.00;99.90;;;;;;5050513;28;20576;-73
2022/09/12 07:36:57;;;;;;;55.65;36.83;;;15.00;99.90;;;;;;5063943;28;20098;-72
2022/09/12 07:39:23;;;;;;;59.97;36.60;;;15.00;99.90;;;;;;5068281;28;20077;-73
2022/09/12 07:41:49;;;;;;;56.90;35.85;;;15.00;99.90;;;;;;5065566;28;20102;-73
2022/09/12 07:44:14;;;;;;;59.50;35.70;;;15.10;99.90;;;;;;5065068;28;20566;-73
2022/09/12 07:46:40;;;;;;;56.38;35.40;;;15.10;99.90;;;;;;5066988;28;20492;-72
2022/09/12 07:49:06;;;;;;;55.45;34.45;;;15.10;99.90;;;;;;5066109;28;20067;-73
2022/09/12 07:51:32;;;;;;;57.20;35.90;;;15.20;99.90;;;;;;5056234;28;20040;-73
2022/09/12 07:53:58;;;;;;;62.80;36.45;;;15.20;99.90;;;;;;5062799;28;20040;-73
2022/09/12 07:56:26;;;;;;;66.88;37.80;;;15.30;99.90;;;;;;5062675;28;20044;-73
2022/09/12 07:58:51;;;;;;;59.88;37.33;;;15.30;99.90;;;;;;5065538;28;20141;-73
2022/09/12 08:01:20;;;;;;;62.83;36.63;;;15.30;99.90;;;;;;5060604;28;20626;-73
2022/09/12 08:03:48;;;;;;;69.25;37.45;;;15.40;99.90;;;;;;5065075;28;20043;-72
2022/09/12 08:06:19;;;;;;;55.92;35.75;;;15.50;99.90;;;;;;5049672;28;20052;-72
2022/09/12 08:08:45;;;;;;;59.42;35.40;;;15.50;99.90;;;;;;5059688;28;20341;-73
2022/09/12 08:11:13;;;;;;;58.38;35.72;;;15.50;99.90;;;;;;5064429;28;20054;-72
2022/09/12 08:13:41;;;;;;;55.97;33.60;;;15.50;99.90;;;;;;5074876;28;20067;-73
2022/09/12 08:16:11;;;;;;;62.55;36.88;;;15.60;99.90;;;;;;5056222;28;20049;-73
2022/09/12 08:18:38;;;;;;;57.55;35.72;;;15.60;99.90;;;;;;5063174;28;20513;-73
2022/09/12 08:21:16;;;;;;;64.18;37.45;;;15.70;99.90;;;;;;5065680;28;20075;-73
2022/09/12 08:23:43;;;;;;;59.40;35.67;;;15.70;99.90;;;;;;5063840;28;20050;-73
2022/09/12 08:26:10;;;;;;;61.90;36.97;;;15.70;99.90;;;;;;5060981;28;20139;-72
2022/09/12 08:28:38;;;;;;;57.05;35.00;;;15.80;99.90;;;;;;5066056;28;20047;-73
2022/09/12 08:31:06;;;;;;;55.75;35.35;;;15.90;99.90;;;;;;5061854;28;20740;-72
2022/09/12 08:33:33;;;;;;;57.85;35.47;;;15.90;99.90;;;;;;5069928;28;20044;-73
2022/09/12 08:36:11;;;;;;;61.55;36.03;;;16.00;99.90;;;;;;5064196;28;20048;-73
2022/09/12 08:38:38;;;;;;;59.67;36.00;;;16.00;99.90;;;;;;5064798;28;20075;-73
2022/09/12 08:41:39;;;;;;;58.40;37.15;;;16.20;99.90;;;;;;5062617;28;20105;-73
2022/09/12 08:44:23;;;;;;;63.53;35.78;;;16.20;99.90;;;;;;5063111;28;20041;-73
2022/09/12 08:46:58;;;;;;;62.78;37.65;;;16.30;99.90;;;;;;5064658;28;20509;-73
2022/09/12 08:49:36;;;;;;;62.38;36.88;;;16.30;99.90;;;;;;5063769;28;20532;-73
2022/09/12 08:52:11;;;;;;;58.10;37.60;;;16.40;99.90;;;;;;5063567;28;20111;-73
2022/09/12 08:54:38;;;;;;;59.25;35.33;;;16.50;99.90;;;;;;5064430;28;20072;-73
2022/09/12 08:57:05;;;;;;;55.25;35.00;;;16.60;99.90;;;;;;5062939;28;20036;-72
2022/09/12 08:59:43;;;;;;;57.72;35.88;;;16.60;99.90;;;;;;5064438;28;20045;-73
2022/09/12 09:02:18;;;;;;;59.67;37.65;;;16.70;99.90;;;;;;5065642;28;20644;-72
2022/09/12 09:04:50;;;;;;;60.78;38.30;;;16.80;99.90;;;;;;5066019;28;20528;-73
2022/09/12 09:07:35;;;;;;;56.35;37.78;;;17.00;99.90;;;;;;5066537;28;20052;-73
2022/09/12 09:10:15;;;;;;;49.88;34.15;;;17.10;99.90;;;;;;5064282;28;20045;-73
2022/09/12 09:12:59;;;;;;;57.03;34.53;;;17.20;99.90;;;;;;5064390;28;20041;-73
2022/09/12 09:15:40;;;;;;;56.30;34.60;;;17.30;99.90;;;;;;5064624;28;20435;-73
2022/09/12 09:18:43;;;;;;;54.22;33.05;;;17.30;99.90;;;;;;5059328;28;20526;-73
2022/09/12 09:21:15;;;;;;;58.33;34.90;;;17.40;99.90;;;;;;5003312;28;20045;-72
2022/09/12 09:23:53;;;;;;;57.08;36.65;;;17.50;99.90;;;;;;5053260;28;20055;-73
2022/09/12 09:26:44;;;;;;;55.60;36.05;;;17.50;99.90;;;;;;5065505;28;20040;-73
2022/09/12 09:29:25;;;;;;;56.13;36.75;;;17.60;99.90;;;;;;5064831;28;20497;-73
2022/09/12 09:31:54;;;;;;;56.03;36.60;;;17.70;99.90;;;;;;5066220;28;20474;-72
2022/09/12 09:34:24;;;;;;;57.92;36.17;;;17.80;99.90;;;;;;5068089;28;20040;-74
2022/09/12 09:37:04;;;;;;;56.50;36.38;;;17.90;99.90;;;;;;5067019;28;20048;-73
2022/09/12 09:39:33;;;;;;;57.85;37.20;;;18.00;99.90;;;;;;5065229;28;20121;-73
2022/09/12 09:42:24;;;;;;;62.88;39.13;;;18.10;99.90;;;;;;5060337;28;20138;-72
2022/09/12 09:44:53;;;;;;;56.38;36.90;;;18.20;99.90;;;;;;5064754;28;20043;-73
2022/09/12 09:47:19;;;;;;;58.33;35.17;;;18.40;99.90;;;;;;5064471;28;20040;-72
2022/09/12 09:49:46;;;;;;;56.13;35.13;;;18.50;99.90;;;;;;5065738;28;20029;-73
2022/09/12 09:52:15;;;;;;;55.65;35.00;;;18.60;99.90;;;;;;5065952;28;20052;-72
2022/09/12 09:54:50;;;;;;;56.67;34.83;;;18.70;99.90;;;;;;5064808;28;20101;-73
2022/09/12 09:57:35;;;;;;;50.53;34.03;;;18.70;99.90;;;;;;5066268;28;20048;-73
2022/09/12 10:00:28;;;;;;;54.50;34.67;;;18.90;99.90;;;;;;5064457;28;20131;-74
2022/09/12 10:03:08;;;;;;;47.80;30.92;;;19.10;99.90;;;;;;5065421;28;20047;-72
2022/09/12 10:05:46;;;;;;;49.50;30.73;;;19.20;99.90;;;;;;5064949;28;20049;-72
2022/09/12 10:08:25;;;;;;;52.75;31.67;;;19.30;99.90;;;;;;5062580;28;20059;-72
2022/09/12 10:11:00;;;;;;;46.63;29.80;;;19.40;99.90;;;;;;5046474;28;20052;-72
2022/09/12 10:13:41;;;;;;;45.80;29.90;;;19.50;99.90;;;;;;5066046;28;20048;-73
2022/09/12 10:16:31;;;;;;;43.53;28.60;;;19.60;99.90;;;;;;5067183;28;20040;-73
2022/09/12 10:19:02;;;;;;;48.92;29.20;;;19.70;99.90;;;;;;5066566;28;20501;-73
2022/09/12 10:21:44;;;;;;;44.83;25.85;;;19.70;99.90;;;;;;5052752;28;20067;-73
2022/09/12 10:24:19;;;;;;;37.90;25.00;;;19.80;99.90;;;;;;5065704;28;20045;-73
2022/09/12 10:26:50;;;;;;;40.17;24.70;;;19.90;99.90;;;;;;5067591;28;20036;-73
2022/09/12 10:29:17;;;;;;;;;;;20.10;99.90;;;;;;5051759;28;20527;-73
2022/09/12 10:31:49;;;;;;;36.65;22.25;;;20.10;99.90;;;;;;5068933;28;20011;-73
2022/09/12 10:34:33;;;;;;;35.67;22.00;;;20.20;99.90;;;;;;5067969;28;20040;-74
2022/09/12 10:37:07;;;;;;;38.60;22.55;;;20.20;99.90;;;;;;5067833;28;20048;-73
2022/09/12 10:39:35;;;;;;;31.88;21.02;;;20.30;99.90;;;;;;5052634;28;20032;-70
2022/09/12 10:42:02;;;;;;;35.20;21.30;;;20.30;99.90;;;;;;5068080;28;20056;-70
2022/09/12 10:44:34;;;;;;;37.78;22.73;;;20.40;99.90;;;;;;5068568;28;20040;-69
2022/09/12 10:47:19;;;;;;;37.75;23.17;;;20.50;99.90;;;;;;5083684;28;20082;-69
2022/09/12 10:49:45;;;;;;;35.85;20.05;;;20.50;99.90;;;;;;5067990;28;20119;-69
2022/09/12 10:52:22;;;;;;;24.95;16.15;;;20.60;99.90;;;;;;5067073;28;20131;-70
2022/09/12 10:54:51;;;;;;;27.17;17.08;;;20.60;99.90;;;;;;5067440;28;20040;-70
2022/09/12 10:57:50;;;;;;;26.67;16.00;;;20.70;99.90;;;;;;5066663;28;20051;-70
2022/09/12 11:00:19;;;;;;;24.98;15.30;;;20.80;99.90;;;;;;5066146;28;20056;-70
2022/09/12 11:03:09;;;;;;;26.08;16.10;;;20.90;99.90;;;;;;5066751;28;20045;-71
2022/09/12 11:05:52;;;;;;;27.50;14.85;;;21.00;99.90;;;;;;5064316;28;20065;-70
2022/09/12 11:08:49;;;;;;;22.65;15.32;;;21.10;99.90;;;;;;5050441;28;20055;-70
2022/09/12 11:11:38;;;;;;;22.80;13.77;;;21.10;99.90;;;;;;5067166;28;20083;-70
2022/09/12 11:14:10;;;;;;;22.38;12.70;;;21.10;99.90;;;;;;5068333;28;20400;-70
2022/09/12 11:17:09;;;;;;;20.65;12.77;;;21.20;99.90;;;;;;5068208;28;20127;-70
2022/09/12 11:19:51;;;;;;;17.45;10.00;;;21.30;99.90;;;;;;5065308;28;20578;-70
2022/09/12 11:22:30;;;;;;;13.70;8.75;;;21.30;99.90;;;;;;5050157;28;20062;-70
2022/09/12 11:25:26;;;;;;;14.35;8.75;;;21.40;99.90;;;;;;5064257;28;20032;-69
2022/09/12 11:28:11;;;;;;;15.27;9.02;;;21.50;99.90;;;;;;5045681;28;20083;-70
2022/09/12 11:31:00;;;;;;;13.15;8.98;;;21.50;99.90;;;;;;5068475;28;20123;-70
2022/09/12 11:33:49;;;;;;;13.73;9.48;;;21.60;99.90;;;;;;5064899;28;20102;-70
2022/09/12 11:36:48;;;;;;;17.95;9.63;;;21.70;99.90;;;;;;5068191;28;20098;-69
2022/09/12 11:39:21;;;;;;;11.20;7.45;;;21.70;99.90;;;;;;5064322;28;20053;-69
2022/09/12 11:41:55;;;;;;;12.57;7.50;;;21.70;99.90;;;;;;5068051;28;20041;-70
2022/09/12 11:44:31;;;;;;;12.60;7.82;;;21.70;99.90;;;;;;5068186;28;20680;-69
2022/09/12 11:46:59;;;;;;;11.82;7.80;;;21.70;99.90;;;;;;5076761;28;20052;-70
2022/09/12 11:49:32;;;;;;;12.95;7.70;;;21.80;99.90;;;;;;5064966;28;20040;-70
2022/09/12 11:52:13;;;;;;;14.02;8.93;;;21.80;99.90;;;;;;5047838;28;20052;-70
2022/09/12 11:54:41;;;;;;;14.77;9.38;;;21.90;99.90;;;;;;5065052;28;20063;-70
2022/09/12 11:57:22;;;;;;;16.52;10.13;;;21.90;99.90;;;;;;5065745;28;20059;-71
2022/09/12 12:00:35;;;;;;;17.77;9.70;;;21.90;99.90;;;;;;5066478;28;20041;-71
2022/09/12 12:03:25;;;;;;;15.95;9.95;;;21.90;99.90;;;;;;5057199;28;20405;-70
2022/09/12 12:05:58;;;;;;;21.67;11.33;;;21.90;99.90;;;;;;5065849;28;20040;-70
2022/09/12 12:08:28;;;;;;;18.23;10.95;;;21.90;99.90;;;;;;5064245;28;20803;-70
2022/09/12 12:11:00;;;;;;;15.02;9.40;;;21.90;99.90;;;;;;5061974;28;20047;-69
2022/09/12 12:13:50;;;;;;;14.27;9.35;;;21.80;99.90;;;;;;5068709;28;20044;-70
2022/09/12 12:16:29;;;;;;;18.45;9.55;;;21.90;99.90;;;;;;5064586;28;20213;-70
2022/09/12 12:18:59;;;;;;;14.15;7.65;;;21.90;99.90;;;;;;5066883;28;20040;-70
2022/09/12 12:21:28;;;;;;;14.25;7.38;;;22.00;99.90;;;;;;5067472;28;20041;-69
2022/09/12 12:24:21;;;;;;;10.48;5.65;;;22.00;99.90;;;;;;5065380;28;20048;-69
2022/09/12 12:26:53;;;;;;;10.68;6.18;;;22.00;99.90;;;;;;5057372;28;20045;-70
2022/09/12 12:29:18;;;;;;;12.60;7.72;;;22.00;99.90;;;;;;5071159;28;20044;-73
2022/09/12 12:32:18;;;;;;;12.60;7.07;;;22.00;99.90;;;;;;5065967;28;20374;-72
2022/09/12 12:34:45;;;;;;;14.55;7.40;;;22.00;99.90;;;;;;5064600;28;20409;-73
2022/09/12 12:37:28;;;;;;;13.50;6.32;;;22.10;99.90;;;;;;5064508;28;20044;-73
2022/09/12 12:40:03;;;;;;;10.95;6.70;;;22.10;99.90;;;;;;5049718;28;20079;-73
2022/09/12 12:42:34;;;;;;;12.95;6.45;;;22.20;99.90;;;;;;5066625;28;20428;-72
2022/09/12 12:45:23;;;;;;;9.68;6.38;;;22.20;99.90;;;;;;5063973;28;20119;-73
2022/09/12 12:47:58;;;;;;;10.55;6.25;;;22.30;99.90;;;;;;5066121;28;20435;-73
2022/09/12 12:50:27;;;;;;;11.98;5.80;;;22.20;99.90;;;;;;5067713;28;20561;-73
2022/09/12 12:53:16;;;;;;;10.93;6.35;;;22.20;99.90;;;;;;5066439;28;20040;-73
2022/09/12 12:55:41;;;;;;;15.02;7.57;;;22.30;99.90;;;;;;5048800;28;20102;-73
2022/09/12 12:58:24;;;;;;;13.95;7.80;;;22.30;99.90;;;;;;5048465;28;20040;-73
2022/09/12 13:01:02;;;;;;;15.52;8.75;;;22.30;99.90;;;;;;5076598;28;20049;-73
2022/09/12 13:03:31;;;;;;;11.00;6.95;;;22.30;99.90;;;;;;5065743;28;20120;-73